Time;durP1;ratioP1;P1;durP2;ratioP2;P2;SDS_P1;SDS_P2;PMS_P1;PMS_P2;Temp;Humidity;BMP_temperature;BMP_pressure;BME280_temperature;BME280_humidity;BME280_pressure;Samples;Min_cycle;Max_cycle;Signal;HPM_P1;HPM_P2
2023/12/01 00:01:00;;;;;;;;;;;;;;;;;;5029367;28;20683;-79
2023/12/01 00:03:27;;;;;;;;;;;;;;;;;;5034873;28;20473;-80
2023/12/01 00:05:54;;;;;;;;;;;;;;;;;;5032840;28;19943;-79
2023/12/01 00:08:20;;;;;;;;;;;;;;;;;;5031367;28;19917;-80
2023/12/01 00:10:48;;;;;;;;;;;;;;;;;;5029592;28;19927;-80
2023/12/01 00:13:14;;;;;;;;;;;;;;;;;;5036727;28;19916;-78
2023/12/01 00:15:40;;;;;;;;;;;;;;;;;;5033848;28;19924;-78
2023/12/01 00:18:06;;;;;;;;;;;;;;;;;;5028930;28;19920;-80
2023/12/01 00:20:33;;;;;;;;;;;;;;;;;;5026805;28;19956;-80
2023/12/01 00:23:00;;;;;;;;;;;;;;;;;;5025931;28;20735;-79
2023/12/01 00:25:27;;;;;;;;;;;;;;;;;;5028275;28;19944;-80
2023/12/01 00:27:53;;;;;;;;;;;;;;;;;;5019378;28;19913;-79
2023/12/01 00:30:21;;;;;;;;;;;;;;;;;;5021590;28;19921;-79
2023/12/01 00:32:49;;;;;;;;;;;;;;;;;;5022751;28;20411;-80
2023/12/01 00:35:16;;;;;;;;;;;;;;;;;;5024723;28;19924;-80
2023/12/01 00:37:43;;;;;;;;;;;;;;;;;;5023899;28;19925;-79
2023/12/01 00:40:10;;;;;;;;;;;;;;;;;;5019733;28;20523;-80
2023/12/01 00:42:36;;;;;;;;;;;;;;;;;;5026427;28;19940;-80
2023/12/01 00:45:03;;;;;;;;;;;;;;;;;;5011737;28;20616;-79
2023/12/01 00:47:31;;;;;;;;;;;;;;;;;;5026608;28;19916;-79
2023/12/01 00:49:58;;;;;;;;;;;;;;;;;;5018612;28;20440;-79
2023/12/01 00:52:24;;;;;;;;;;;;;;;;;;5023882;28;19917;-79
2023/12/01 00:54:50;;;;;;;;;;;;;;;;;;5019555;28;19979;-80
2023/12/01 00:57:17;;;;;;;;;;;;;;;;;;5023917;28;20098;-80
2023/12/01 00:59:44;;;;;;;;;;;;;;;;;;5021346;28;20410;-79
2023/12/01 01:02:11;;;;;;;;;;;;;;;;;;5023993;28;20012;-80
2023/12/01 01:04:37;;;;;;;;;;;;;;;;;;5019991;28;19923;-79
2023/12/01 01:07:03;;;;;;;;;;;;;;;;;;5021460;28;20673;-80
2023/12/01 01:09:30;;;;;;;;;;;;;;;;;;5009037;28;22036;-80
2023/12/01 01:11:57;;;;;;;;;;;;;;;;;;5014920;28;20398;-79
2023/12/01 01:14:23;;;;;;;;;;;;;;;;;;5023595;28;19917;-80
2023/12/01 01:16:50;;;;;;;;;;;;;;;;;;5027182;28;19971;-80
2023/12/01 01:19:16;;;;;;;;;;;;;;;;;;5028488;28;19929;-80
2023/12/01 01:21:42;;;;;;;;;;;;;;;;;;5026896;28;19917;-80
2023/12/01 01:24:08;;;;;;;;;;;;;;;;;;5024141;28;19920;-79
2023/12/01 01:26:34;;;;;;;;;;;;;;;;;;5025136;28;19952;-80
2023/12/01 01:29:00;;;;;;;;;;;;;;;;;;5023556;28;19920;-80
2023/12/01 01:31:26;;;;;;;;;;;;;;;;;;5025163;28;19916;-81
2023/12/01 01:33:52;;;;;;;;;;;;;;;;;;5022667;28;19975;-80
2023/12/01 01:36:18;;;;;;;;;;;;;;;;;;5029531;28;20011;-80
2023/12/01 01:38:44;;;;;;;;;;;;;;;;;;5024061;28;20907;-80
2023/12/01 01:41:10;;;;;;;;;;;;;;;;;;5027638;28;19920;-80
2023/12/01 01:43:36;;;;;;;;;;;;;;;;;;5024576;28;19924;-80
2023/12/01 01:46:02;;;;;;;;;;;;;;;;;;5003737;28;20420;-80
2023/12/01 01:48:28;;;;;;;;;;;;;;;;;;4993732;28;19917;-79
2023/12/01 01:50:54;;;;;;;;;;;;;;;;;;4993274;28;20447;-81
2023/12/01 01:53:20;;;;;;;;;;;;;;;;;;4995965;28;19920;-80
2023/12/01 01:55:46;;;;;;;;;;;;;;;;;;4990097;28;19924;-80
2023/12/01 01:58:12;;;;;;;;;;;;;;;;;;4993053;28;20252;-80
2023/12/01 02:00:38;;;;;;;;;;;;;;;;;;4988164;28;19972;-79
2023/12/01 02:03:04;;;;;;;;;;;;;;;;;;4986779;28;19927;-79
2023/12/01 02:05:33;;;;;;;;;;;;;;;;;;4991811;28;21412;-79
2023/12/01 02:07:59;;;;;;;;;;;;;;;;;;5007756;28;19921;-79
2023/12/01 02:10:25;;;;;;;;;;;;;;;;;;4996527;28;19916;-79
2023/12/01 02:12:51;;;;;;;;;;;;;;;;;;4989937;28;20498;-79
2023/12/01 02:15:17;;;;;;;;;;;;;;;;;;5009898;28;20490;-78
2023/12/01 02:17:43;;;;;;;;;;;;;;;;;;4990307;28;19952;-79
2023/12/01 02:20:14;;;;;;;;;;;;;;;;;;4987483;28;21742;-78
2023/12/01 02:22:40;;;;;;;;;;;;;;;;;;4999190;28;19924;-78
2023/12/01 02:25:06;;;;;;;;;;;;;;;;;;5039121;28;19917;-81
2023/12/01 02:27:32;;;;;;;;;;;;;;;;;;5027023;28;19927;-80
2023/12/01 02:29:58;;;;;;;;;;;;;;;;;;5026057;28;19959;-78
2023/12/01 02:32:24;;;;;;;;;;;;;;;;;;5028465;28;19952;-80
2023/12/01 02:34:50;;;;;;;;;;;;;;;;;;5025719;28;19917;-79
2023/12/01 02:37:16;;;;;;;;;;;;;;;;;;5023305;28;19928;-80
2023/12/01 02:39:42;;;;;;;;;;;;;;;;;;5024653;28;19929;-79
2023/12/01 02:42:08;;;;;;;;;;;;;;;;;;5026830;28;20707;-78
2023/12/01 02:44:34;;;;;;;;;;;;;;;;;;5029675;28;19916;-81
2023/12/01 02:47:00;;;;;;;;;;;;;;;;;;5026291;28;20426;-81
2023/12/01 02:49:26;;;;;;;;;;;;;;;;;;5031900;28;20283;-79
2023/12/01 02:51:52;;;;;;;;;;;;;;;;;;5029659;28;19916;-79
2023/12/01 02:54:18;;;;;;;;;;;;;;;;;;5029181;28;20444;-80
2023/12/01 02:56:44;;;;;;;;;;;;;;;;;;5026014;28;19974;-79
2023/12/01 02:59:10;;;;;;;;;;;;;;;;;;5035091;28;20450;-79
2023/12/01 03:01:36;;;;;;;;;;;;;;;;;;5032686;28;20801;-80
2023/12/01 03:04:02;;;;;;;;;;;;;;;;;;5027965;28;20565;-80
2023/12/01 03:06:27;;;;;;;;;;;;;;;;;;5031020;28;19913;-79
2023/12/01 03:08:53;;;;;;;;;;;;;;;;;;5028010;28;19917;-79
2023/12/01 03:11:19;;;;;;;;;;;;;;;;;;5032245;28;19913;-81
2023/12/01 03:13:45;;;;;;;;;;;;;;;;;;5030604;28;19921;-78
2023/12/01 03:16:11;;;;;;;;;;;;;;;;;;5031261;28;19978;-79
2023/12/01 03:18:38;;;;;;;;;;;;;;;;;;5034598;28;19960;-79
2023/12/01 03:21:12;;;;;;;;;;;;;;;;;;5030870;28;19924;-80
2023/12/01 03:23:38;;;;;;;;;;;;;;;;;;5033223;28;20637;-79
2023/12/01 03:26:04;;;;;;;;;;;;;;;;;;5027704;28;19932;-78
2023/12/01 03:28:31;;;;;;;;;;;;;;;;;;5031116;28;19924;-80
2023/12/01 03:30:57;;;;;;;;;;;;;;;;;;5028219;28;19967;-79
2023/12/01 03:33:23;;;;;;;;;;;;;;;;;;5031965;28;19964;-79
2023/12/01 03:35:49;;;;;;;;;;;;;;;;;;5052266;28;20470;-79
2023/12/01 03:38:15;;;;;;;;;;;;;;;;;;5037481;28;20481;-79
2023/12/01 03:40:41;;;;;;;;;;;;;;;;;;5039022;28;20027;-79
2023/12/01 03:43:07;;;;;;;;;;;;;;;;;;5034950;28;19916;-79
2023/12/01 03:45:33;;;;;;;;;;;;;;;;;;5034347;28;19917;-79
2023/12/01 03:47:59;;;;;;;;;;;;;;;;;;5031306;28;19924;-79
2023/12/01 03:50:25;;;;;;;;;;;;;;;;;;5037075;28;20049;-79
2023/12/01 03:52:51;;;;;;;;;;;;;;;;;;5032110;28;19967;-78
2023/12/01 03:55:17;;;;;;;;;;;;;;;;;;5033432;28;20323;-79
2023/12/01 03:57:43;;;;;;;;;;;;;;;;;;5033920;28;19931;-78
2023/12/01 04:00:13;;;;;;;;;;;;;;;;;;5031371;28;19995;-79
2023/12/01 04:02:40;;;;;;;;;;;;;;;;;;5035870;28;19916;-81
2023/12/01 04:05:07;;;;;;;;;;;;;;;;;;5036643;28;20513;-79
2023/12/01 04:07:33;;;;;;;;;;;;;;;;;;5043899;28;20686;-79
2023/12/01 04:09:59;;;;;;;;;;;;;;;;;;5054776;28;19923;-79
2023/12/01 04:12:25;;;;;;;;;;;;;;;;;;5042329;28;19921;-79
2023/12/01 04:14:51;;;;;;;;;;;;;;;;;;5030371;28;20601;-80
2023/12/01 04:17:18;;;;;;;;;;;;;;;;;;5033561;28;20498;-80
2023/12/01 04:19:43;;;;;;;;;;;;;;;;;;5027477;28;20591;-80
2023/12/01 04:22:09;;;;;;;;;;;;;;;;;;5035504;28;20023;-79
2023/12/01 04:24:35;;;;;;;;;;;;;;;;;;5028543;28;20050;-79
2023/12/01 04:27:01;;;;;;;;;;;;;;;;;;5030276;28;20351;-79
2023/12/01 04:29:28;;;;;;;;;;;;;;;;;;5031867;28;19924;-81
2023/12/01 04:31:54;;;;;;;;;;;;;;;;;;5027108;28;20730;-80
2023/12/01 04:34:20;;;;;;;;;;;;;;;;;;5031533;28;19920;-79
2023/12/01 04:36:46;;;;;;;;;;;;;;;;;;5027922;28;20024;-79
2023/12/01 04:39:14;;;;;;;;;;;;;;;;;;5025612;28;19924;-80
2023/12/01 04:41:40;;;;;;;;;;;;;;;;;;5031872;28;19924;-80
2023/12/01 04:44:06;;;;;;;;;;;;;;;;;;5026545;28;19917;-81
2023/12/01 04:46:32;;;;;;;;;;;;;;;;;;5031557;28;19946;-80
2023/12/01 04:48:57;;;;;;;;;;;;;;;;;;5026569;28;19932;-80
2023/12/01 04:51:24;;;;;;;;;;;;;;;;;;5029619;28;19920;-80
2023/12/01 04:53:50;;;;;;;;;;;;;;;;;;5026601;28;19917;-80
2023/12/01 04:56:15;;;;;;;;;;;;;;;;;;5032300;28;19917;-79
2023/12/01 04:58:41;;;;;;;;;;;;;;;;;;5026524;28;19925;-80
2023/12/01 05:01:07;;;;;;;;;;;;;;;;;;5028719;28;19932;-79
2023/12/01 05:03:33;;;;;;;;;;;;;;;;;;5031979;28;20070;-79
2023/12/01 05:05:59;;;;;;;;;;;;;;;;;;5028117;28;19917;-79
2023/12/01 05:08:27;;;;;;;;;;;;;;;;;;5028525;28;19917;-79
2023/12/01 05:10:54;;;;;;;;;;;;;;;;;;5025232;28;20702;-78
2023/12/01 05:13:20;;;;;;;;;;;;;;;;;;5028947;28;19960;-78
2023/12/01 05:15:46;;;;;;;;;;;;;;;;;;5032051;28;19917;-83
2023/12/01 05:18:12;;;;;;;;;;;;;;;;;;5036598;28;19979;-84
2023/12/01 05:20:38;;;;;;;;;;;;;;;;;;5039607;28;19917;-85
2023/12/01 05:23:11;;;;;;;;;;;;;;;;;;5033671;28;20462;-84
2023/12/01 05:25:38;;;;;;;;;;;;;;;;;;5035188;28;20077;-83
2023/12/01 05:28:03;;;;;;;;;;;;;;;;;;5044805;28;19920;-83
2023/12/01 05:30:29;;;;;;;;;;;;;;;;;;5034728;28;19925;-83
2023/12/01 05:32:55;;;;;;;;;;;;;;;;;;5029885;28;20083;-83
2023/12/01 05:35:22;;;;;;;;;;;;;;;;;;5033017;28;19956;-83
2023/12/01 05:37:48;;;;;;;;;;;;;;;;;;5028857;28;19961;-84
2023/12/01 05:40:14;;;;;;;;;;;;;;;;;;5036717;28;19920;-84
2023/12/01 05:42:41;;;;;;;;;;;;;;;;;;5032838;28;20417;-84
2023/12/01 05:45:11;;;;;;;;;;;;;;;;;;5026291;28;19931;-84
2023/12/01 05:47:37;;;;;;;;;;;;;;;;;;5033944;28;19925;-84
2023/12/01 05:50:04;;;;;;;;;;;;;;;;;;5033426;28;20605;-84
2023/12/01 05:52:30;;;;;;;;;;;;;;;;;;5031546;28;19917;-83
2023/12/01 05:54:56;;;;;;;;;;;;;;;;;;5034701;28;19962;-83
2023/12/01 05:57:22;;;;;;;;;;;;;;;;;;5030035;28;20028;-85
2023/12/01 05:59:48;;;;;;;;;;;;;;;;;;5027478;28;19924;-83
2023/12/01 06:02:14;;;;;;;;;;;;;;;;;;5032297;28;19963;-85
2023/12/01 06:04:40;;;;;;;;;;;;;;;;;;5038881;28;20632;-84
2023/12/01 06:07:07;;;;;;;;;;;;;;;;;;5035195;28;19975;-84
2023/12/01 06:09:34;;;;;;;;;;;;;;;;;;5052761;28;19967;-85
2023/12/01 06:11:59;;;;;;;;;;;;;;;;;;5036187;28;19916;-83
2023/12/01 06:14:25;;;;;;;;;;;;;;;;;;5032704;28;19920;-84
2023/12/01 06:16:52;;;;;;;;;;;;;;;;;;5032809;28;19927;-85
2023/12/01 06:19:18;;;;;;;;;;;;;;;;;;5039028;28;19924;-85
2023/12/01 06:21:44;;;;;;;;;;;;;;;;;;5037536;28;19974;-85
2023/12/01 06:24:10;;;;;;;;;;;;;;;;;;5036907;28;19999;-85
2023/12/01 06:26:36;;;;;;;;;;;;;;;;;;5039586;28;20003;-85
2023/12/01 06:29:02;;;;;;;;;;;;;;;;;;5033406;28;19917;-84
2023/12/01 06:31:28;;;;;;;;;;;;;;;;;;5038560;28;19916;-84
2023/12/01 06:33:54;;;;;;;;;;;;;;;;;;5042335;28;19925;-84
2023/12/01 06:36:20;;;;;;;;;;;;;;;;;;5042003;28;19966;-84
2023/12/01 06:38:46;;;;;;;;;;;;;;;;;;5037835;28;19924;-84
2023/12/01 06:41:12;;;;;;;;;;;;;;;;;;5039801;28;19938;-84
2023/12/01 06:43:38;;;;;;;;;;;;;;;;;;5038231;28;20615;-86
2023/12/01 06:46:04;;;;;;;;;;;;;;;;;;5036149;28;20019;-83
2023/12/01 06:48:29;;;;;;;;;;;;;;;;;;5036007;28;19976;-83
2023/12/01 06:50:55;;;;;;;;;;;;;;;;;;5031193;28;19917;-84
2023/12/01 06:53:21;;;;;;;;;;;;;;;;;;5036025;28;19923;-85
2023/12/01 06:55:47;;;;;;;;;;;;;;;;;;5030953;28;19924;-83
2023/12/01 06:58:13;;;;;;;;;;;;;;;;;;5032290;28;19920;-85
2023/12/01 07:00:39;;;;;;;;;;;;;;;;;;5032514;28;19917;-83
2023/12/01 07:03:06;;;;;;;;;;;;;;;;;;5035047;28;19948;-84
2023/12/01 07:05:32;;;;;;;;;;;;;;;;;;5033587;28;19943;-84
2023/12/01 07:07:58;;;;;;;;;;;;;;;;;;5033960;28;19924;-83
2023/12/01 07:10:24;;;;;;;;;;;;;;;;;;5033927;28;19917;-83
2023/12/01 07:12:50;;;;;;;;;;;;;;;;;;5030984;28;20283;-83
2023/12/01 07:15:20;;;;;;;;;;;;;;;;;;5035450;28;19913;-85
2023/12/01 07:17:46;;;;;;;;;;;;;;;;;;5036088;28;20882;-83
2023/12/01 07:20:15;;;;;;;;;;;;;;;;;;5037403;28;19924;-83
2023/12/01 07:22:42;;;;;;;;;;;;;;;;;;5042048;28;19927;-84
2023/12/01 07:25:10;;;;;;;;;;;;;;;;;;5042529;28;19916;-84
2023/12/01 07:27:36;;;;;;;;;;;;;;;;;;5042945;28;20450;-85
2023/12/01 07:30:02;;;;;;;;;;;;;;;;;;5032717;28;19920;-83
2023/12/01 07:32:28;;;;;;;;;;;;;;;;;;5028873;28;19925;-85
2023/12/01 07:34:54;;;;;;;;;;;;;;;;;;5031612;28;19928;-86
2023/12/01 07:37:20;;;;;;;;;;;;;;;;;;5039834;28;19917;-82
2023/12/01 07:39:46;;;;;;;;;;;;;;;;;;5030057;28;19925;-84
2023/12/01 07:42:12;;;;;;;;;;;;;;;;;;5035408;28;19917;-83
2023/12/01 07:44:38;;;;;;;;;;;;;;;;;;5038572;28;20017;-85
2023/12/01 07:47:08;;;;;;;;;;;;;;;;;;5036144;28;20020;-82
2023/12/01 07:49:34;;;;;;;;;;;;;;;;;;5032933;28;19998;-83
2023/12/01 07:52:01;;;;;;;;;;;;;;;;;;5052347;28;19921;-86
2023/12/01 07:54:27;;;;;;;;;;;;;;;;;;5037130;28;19927;-85
2023/12/01 07:56:53;;;;;;;;;;;;;;;;;;5052935;28;19920;-83
2023/12/01 07:59:21;;;;;;;;;;;;;;;;;;5040316;28;19924;-84
2023/12/01 08:01:47;;;;;;;;;;;;;;;;;;5039177;28;19917;-84
2023/12/01 08:04:13;;;;;;;;;;;;;;;;;;5033366;28;19983;-85
2023/12/01 08:06:39;;;;;;;;;;;;;;;;;;5036422;28;19991;-84
2023/12/01 08:09:05;;;;;;;;;;;;;;;;;;5031902;28;19992;-81
2023/12/01 08:11:31;;;;;;;;;;;;;;;;;;5043535;28;20003;-83
2023/12/01 08:13:57;;;;;;;;;;;;;;;;;;5038793;28;19923;-83
2023/12/01 08:16:23;;;;;;;;;;;;;;;;;;5037116;28;20017;-84
2023/12/01 08:18:49;;;;;;;;;;;;;;;;;;5034600;28;19963;-83
2023/12/01 08:21:15;;;;;;;;;;;;;;;;;;5040677;28;20494;-85
2023/12/01 08:23:41;;;;;;;;;;;;;;;;;;5033630;28;19921;-85
2023/12/01 08:26:07;;;;;;;;;;;;;;;;;;5034366;28;20362;-84
2023/12/01 08:28:33;;;;;;;;;;;;;;;;;;5040801;28;19944;-82
2023/12/01 08:30:59;;;;;;;;;;;;;;;;;;5034654;28;19964;-85
2023/12/01 08:33:25;;;;;;;;;;;;;;;;;;5035515;28;19920;-83
2023/12/01 08:35:51;;;;;;;;;;;;;;;;;;5033172;28;19916;-84
2023/12/01 08:38:17;;;;;;;;;;;;;;;;;;5029822;28;19928;-82
2023/12/01 08:40:43;;;;;;;;;;;;;;;;;;5030437;28;19921;-84
2023/12/01 08:43:09;;;;;;;;;;;;;;;;;;5031916;28;20634;-83
2023/12/01 08:45:35;;;;;;;;;;;;;;;;;;5030985;28;19928;-83
2023/12/01 08:48:01;;;;;;;;;;;;;;;;;;5027211;28;19921;-82
2023/12/01 08:50:26;;;;;;;;;;;;;;;;;;5030158;28;19923;-82
2023/12/01 08:52:52;;;;;;;;;;;;;;;;;;5033986;28;19916;-83
2023/12/01 08:55:18;;;;;;;;;;;;;;;;;;5047950;28;19999;-82
2023/12/01 08:57:44;;;;;;;;;;;;;;;;;;5047231;28;19974;-84
2023/12/01 09:00:10;;;;;;;;;;;;;;;;;;5045153;28;19925;-83
2023/12/01 09:02:36;;;;;;;;;;;;;;;;;;5029684;28;19913;-83
2023/12/01 09:05:02;;;;;;;;;;;;;;;;;;5033314;28;21222;-82
2023/12/01 09:07:28;;;;;;;;;;;;;;;;;;5029133;28;19920;-82
2023/12/01 09:09:54;;;;;;;;;;;;;;;;;;5029168;28;19947;-83
2023/12/01 09:12:21;;;;;;;;;;;;;;;;;;5038741;28;19951;-83
2023/12/01 09:14:47;;;;;;;;;;;;;;;;;;5027829;28;20061;-82
2023/12/01 09:17:14;;;;;;;;;;;;;;;;;;5029883;28;20131;-82
2023/12/01 09:19:42;;;;;;;;;;;;;;;;;;5030465;28;20375;-82
2023/12/01 09:22:08;;;;;;;;;;;;;;;;;;5024924;28;19917;-83
2023/12/01 09:24:34;;;;;;;;;;;;;;;;;;5031222;28;19927;-83
2023/12/01 09:27:00;;;;;;;;;;;;;;;;;;5031278;28;19916;-81
2023/12/01 09:29:26;;;;;;;;;;;;;;;;;;5035265;28;20037;-81
2023/12/01 09:31:52;;;;;;;;;;;;;;;;;;5027412;28;20363;-84
2023/12/01 09:34:18;;;;;;;;;;;;;;;;;;5028409;28;19919;-81
2023/12/01 09:36:44;;;;;;;;;;;;;;;;;;5024483;28;19924;-82
2023/12/01 09:39:10;;;;;;;;;;;;;;;;;;5029662;28;19931;-81
2023/12/01 09:41:36;;;;;;;;;;;;;;;;;;5032827;28;20025;-82
2023/12/01 09:44:02;;;;;;;;;;;;;;;;;;5028465;28;19937;-84
2023/12/01 09:46:34;;;;;;;;;;;;;;;;;;5038110;28;19968;-83
2023/12/01 09:49:00;;;;;;;;;;;;;;;;;;5037421;28;20011;-82
2023/12/01 09:51:26;;;;;;;;;;;;;;;;;;5037521;28;20028;-82
2023/12/01 09:53:52;;;;;;;;;;;;;;;;;;5033632;28;19928;-84
2023/12/01 09:56:19;;;;;;;;;;;;;;;;;;5039880;28;19920;-83
2023/12/01 09:58:45;;;;;;;;;;;;;;;;;;5037069;28;20557;-83
2023/12/01 10:01:11;;;;;;;;;;;;;;;;;;5034776;28;20393;-83
2023/12/01 10:03:37;;;;;;;;;;;;;;;;;;5032671;28;20373;-84
2023/12/01 10:06:04;;;;;;;;;;;;;;;;;;5028169;28;22737;-82
2023/12/01 10:08:30;;;;;;;;;;;;;;;;;;5036015;28;19924;-84
2023/12/01 10:10:58;;;;;;;;;;;;;;;;;;5036629;28;19921;-82
2023/12/01 10:13:24;;;;;;;;;;;;;;;;;;5034679;28;19916;-82
2023/12/01 10:15:50;;;;;;;;;;;;;;;;;;5037066;28;20448;-82
2023/12/01 10:18:16;;;;;;;;;;;;;;;;;;5043047;28;19962;-84
2023/12/01 10:20:42;;;;;;;;;;;;;;;;;;5048094;28;20316;-83
2023/12/01 10:23:08;;;;;;;;;;;;;;;;;;5049432;28;19984;-83
2023/12/01 10:25:34;;;;;;;;;;;;;;;;;;5053669;28;20366;-84
2023/12/01 10:28:00;;;;;;;;;;;;;;;;;;5043016;28;20198;-82
2023/12/01 10:30:26;;;;;;;;;;;;;;;;;;5049687;28;19917;-84
2023/12/01 10:32:52;;;;;;;;;;;;;;;;;;5037969;28;19952;-82
2023/12/01 10:35:18;;;;;;;;;;;;;;;;;;5044077;28;19916;-84
2023/12/01 10:37:44;;;;;;;;;;;;;;;;;;5031028;28;19924;-83
2023/12/01 10:40:13;;;;;;;;;;;;;;;;;;5037772;28;19921;-83
2023/12/01 10:42:39;;;;;;;;;;;;;;;;;;5040382;28;19917;-83
2023/12/01 10:45:05;;;;;;;;;;;;;;;;;;5035611;28;19923;-84
2023/12/01 10:47:31;;;;;;;;;;;;;;;;;;5054180;28;19921;-83
2023/12/01 10:49:57;;;;;;;;;;;;;;;;;;5033233;28;19960;-83
2023/12/01 10:52:23;;;;;;;;;;;;;;;;;;5041889;28;20474;-82
2023/12/01 10:54:49;;;;;;;;;;;;;;;;;;5038785;28;20561;-84
2023/12/01 10:57:15;;;;;;;;;;;;;;;;;;5039074;28;19924;-84
2023/12/01 10:59:41;;;;;;;;;;;;;;;;;;5033564;28;19921;-84
2023/12/01 11:02:07;;;;;;;;;;;;;;;;;;5037533;28;19917;-84
2023/12/01 11:04:33;;;;;;;;;;;;;;;;;;5045412;28;20603;-84
2023/12/01 11:06:59;;;;;;;;;;;;;;;;;;5050104;28;19917;-85
2023/12/01 11:09:25;;;;;;;;;;;;;;;;;;5048502;28;19925;-82
2023/12/01 11:11:52;;;;;;;;;;;;;;;;;;5048173;28;19926;-83
2023/12/01 11:14:18;;;;;;;;;;;;;;;;;;5041046;28;19924;-85
2023/12/01 11:16:47;;;;;;;;;;;;;;;;;;5037868;28;19920;-84
2023/12/01 11:19:13;;;;;;;;;;;;;;;;;;5032323;28;20003;-85
2023/12/01 11:21:39;;;;;;;;;;;;;;;;;;5035613;28;20015;-83
2023/12/01 11:24:04;;;;;;;;;;;;;;;;;;5030972;28;19920;-84
2023/12/01 11:26:31;;;;;;;;;;;;;;;;;;5032883;28;19917;-83
2023/12/01 11:28:57;;;;;;;;;;;;;;;;;;5033541;28;20043;-82
2023/12/01 11:33:59;;;;;;;;;;;;;;;;;;5034133;28;20035;-82
2023/12/01 11:36:25;;;;;;;;;;;;;;;;;;5031617;28;19974;-83
2023/12/01 11:38:51;;;;;;;;;;;;;;;;;;5031885;28;20050;-83
2023/12/01 11:41:17;;;;;;;;;;;;;;;;;;5036228;28;19921;-84
2023/12/01 11:43:43;;;;;;;;;;;;;;;;;;5036366;28;19940;-83
2023/12/01 11:46:09;;;;;;;;;;;;;;;;;;5035250;28;19979;-83
2023/12/01 11:48:35;;;;;;;;;;;;;;;;;;5051023;28;19923;-83
2023/12/01 11:51:01;;;;;;;;;;;;;;;;;;5031220;28;19921;-83
2023/12/01 11:53:26;;;;;;;;;;;;;;;;;;5037144;28;19986;-83
2023/12/01 11:55:53;;;;;;;;;;;;;;;;;;5036579;28;20715;-83
2023/12/01 11:58:19;;;;;;;;;;;;;;;;;;5032130;28;19921;-83
2023/12/01 12:00:45;;;;;;;;;;;;;;;;;;5032972;28;20326;-84
2023/12/01 12:03:10;;;;;;;;;;;;;;;;;;5018812;28;19966;-82
2023/12/01 12:05:36;;;;;;;;;;;;;;;;;;5023057;28;19948;-84
2023/12/01 12:08:02;;;;;;;;;;;;;;;;;;5049477;28;19916;-84
2023/12/01 12:10:28;;;;;;;;;;;;;;;;;;5033589;28;20476;-82
2023/12/01 12:12:54;;;;;;;;;;;;;;;;;;5034866;28;19923;-81
2023/12/01 12:15:20;;;;;;;;;;;;;;;;;;5032658;28;20443;-79
2023/12/01 12:17:46;;;;;;;;;;;;;;;;;;5028408;28;20363;-80
2023/12/01 12:20:12;;;;;;;;;;;;;;;;;;5029275;28;19927;-80
2023/12/01 12:22:38;;;;;;;;;;;;;;;;;;5030257;28;20016;-79
2023/12/01 12:25:04;;;;;;;;;;;;;;;;;;5026817;28;20595;-79
2023/12/01 12:27:30;;;;;;;;;;;;;;;;;;5030266;28;21313;-81
2023/12/01 12:29:57;;;;;;;;;;;;;;;;;;5023666;28;20861;-79
2023/12/01 12:32:22;;;;;;;;;;;;;;;;;;5022621;28;19920;-79
2023/12/01 12:34:48;;;;;;;;;;;;;;;;;;5025227;28;20468;-79
2023/12/01 12:37:14;;;;;;;;;;;;;;;;;;5030942;28;20351;-80
2023/12/01 12:39:40;;;;;;;;;;;;;;;;;;5023458;28;19924;-79
2023/12/01 12:42:06;;;;;;;;;;;;;;;;;;5008355;28;19917;-79
2023/12/01 12:44:32;;;;;;;;;;;;;;;;;;5012844;28;19952;-78
2023/12/01 12:47:05;;;;;;;;;;;;;;;;;;5003219;28;19921;-78
2023/12/01 12:49:31;;;;;;;;;;;;;;;;;;5006744;28;19917;-79
2023/12/01 12:51:57;;;;;;;;;;;;;;;;;;5012887;28;19916;-80
2023/12/01 12:54:23;;;;;;;;;;;;;;;;;;5014943;28;19917;-80
2023/12/01 12:56:49;;;;;;;;;;;;;;;;;;5014943;28;19927;-78
2023/12/01 12:59:15;;;;;;;;;;;;;;;;;;5017792;28;19932;-78
2023/12/01 13:01:41;;;;;;;;;;;;;;;;;;5014434;28;20003;-77
2023/12/01 13:04:07;;;;;;;;;;;;;;;;;;5015272;28;20375;-79
2023/12/01 13:06:33;;;;;;;;;;;;;;;;;;5015237;28;20081;-80
2023/12/01 13:08:58;;;;;;;;;;;;;;;;;;5012423;28;19925;-79
2023/12/01 13:11:25;;;;;;;;;;;;;;;;;;5017705;28;20007;-80
2023/12/01 13:13:51;;;;;;;;;;;;;;;;;;5011925;28;19917;-80
2023/12/01 13:16:17;;;;;;;;;;;;;;;;;;5022901;28;19952;-78
2023/12/01 13:18:45;;;;;;;;;;;;;;;;;;5034012;28;19920;-78
2023/12/01 13:21:11;;;;;;;;;;;;;;;;;;5031326;28;20458;-78
2023/12/01 13:23:38;;;;;;;;;;;;;;;;;;5029042;28;19921;-79
2023/12/01 13:26:04;;;;;;;;;;;;;;;;;;5029564;28;20185;-77
2023/12/01 13:28:30;;;;;;;;;;;;;;;;;;5034079;28;19956;-80
2023/12/01 13:30:56;;;;;;;;;;;;;;;;;;5031350;28;19916;-79
2023/12/01 13:33:22;;;;;;;;;;;;;;;;;;5051055;28;19924;-79
2023/12/01 13:35:48;;;;;;;;;;;;;;;;;;5032237;28;19921;-80
2023/12/01 13:38:14;;;;;;;;;;;;;;;;;;5029339;28;20458;-80
2023/12/01 13:40:44;;;;;;;;;;;;;;;;;;5032101;28;19928;-78
2023/12/01 13:43:10;;;;;;;;;;;;;;;;;;5031074;28;19916;-77
2023/12/01 13:45:39;;;;;;;;;;;;;;;;;;5036044;28;20420;-78
2023/12/01 13:48:05;;;;;;;;;;;;;;;;;;5031029;28;20380;-80
2023/12/01 13:50:31;;;;;;;;;;;;;;;;;;5035671;28;19921;-79
2023/12/01 13:52:57;;;;;;;;;;;;;;;;;;5027588;28;19917;-79
2023/12/01 13:55:23;;;;;;;;;;;;;;;;;;5030341;28;19943;-80
2023/12/01 13:57:50;;;;;;;;;;;;;;;;;;5028481;28;19917;-80
2023/12/01 14:00:16;;;;;;;;;;;;;;;;;;5028315;28;19925;-80
2023/12/01 14:02:42;;;;;;;;;;;;;;;;;;5031758;28;19998;-81
2023/12/01 14:05:08;;;;;;;;;;;;;;;;;;5029513;28;20783;-78
2023/12/01 14:07:34;;;;;;;;;;;;;;;;;;5023804;28;20397;-79
2023/12/01 14:10:00;;;;;;;;;;;;;;;;;;5031440;28;19924;-78
2023/12/01 14:12:26;;;;;;;;;;;;;;;;;;5033264;28;19921;-80
2023/12/01 14:14:52;;;;;;;;;;;;;;;;;;5024858;28;19917;-79
2023/12/01 14:17:18;;;;;;;;;;;;;;;;;;5036557;28;19920;-78
2023/12/01 14:19:44;;;;;;;;;;;;;;;;;;5027363;28;19936;-79
2023/12/01 14:22:10;;;;;;;;;;;;;;;;;;5026169;28;19986;-79
2023/12/01 14:24:36;;;;;;;;;;;;;;;;;;5033825;28;19918;-78
2023/12/01 14:27:02;;;;;;;;;;;;;;;;;;5027579;28;19923;-79
2023/12/01 14:29:28;;;;;;;;;;;;;;;;;;5029251;28;19948;-80
2023/12/01 14:31:54;;;;;;;;;;;;;;;;;;5034240;28;19917;-79
2023/12/01 14:34:20;;;;;;;;;;;;;;;;;;5031557;28;19913;-80
2023/12/01 14:36:46;;;;;;;;;;;;;;;;;;5033772;28;20039;-80
2023/12/01 14:39:12;;;;;;;;;;;;;;;;;;5036136;28;19942;-80
2023/12/01 14:41:38;;;;;;;;;;;;;;;;;;5042195;28;19916;-79
2023/12/01 14:44:04;;;;;;;;;;;;;;;;;;5045890;28;20316;-79
2023/12/01 14:46:29;;;;;;;;;;;;;;;;;;5044693;28;20885;-79
2023/12/01 14:48:55;;;;;;;;;;;;;;;;;;5040932;28;19917;-80
2023/12/01 14:51:22;;;;;;;;;;;;;;;;;;5042837;28;19932;-80
2023/12/01 14:53:48;;;;;;;;;;;;;;;;;;5035818;28;19921;-81
2023/12/01 14:56:14;;;;;;;;;;;;;;;;;;5038191;28;19990;-80
2023/12/01 14:58:40;;;;;;;;;;;;;;;;;;5037135;28;19928;-80
2023/12/01 15:01:06;;;;;;;;;;;;;;;;;;5032059;28;19920;-79
2023/12/01 15:03:32;;;;;;;;;;;;;;;;;;5035923;28;20024;-79
2023/12/01 15:05:58;;;;;;;;;;;;;;;;;;5031694;28;19950;-79
2023/12/01 15:08:24;;;;;;;;;;;;;;;;;;5037949;28;19913;-79
2023/12/01 15:10:50;;;;;;;;;;;;;;;;;;5031118;28;20445;-81
2023/12/01 15:13:16;;;;;;;;;;;;;;;;;;5040684;28;19917;-80
2023/12/01 15:15:42;;;;;;;;;;;;;;;;;;5048421;28;20393;-79
2023/12/01 15:18:08;;;;;;;;;;;;;;;;;;5034497;28;19931;-79
2023/12/01 15:20:35;;;;;;;;;;;;;;;;;;5050153;28;20066;-81
2023/12/01 15:23:00;;;;;;;;;;;;;;;;;;5032259;28;19916;-80
2023/12/01 15:25:26;;;;;;;;;;;;;;;;;;5018425;28;19923;-81
2023/12/01 15:27:52;;;;;;;;;;;;;;;;;;5015645;28;20006;-80
2023/12/01 15:30:18;;;;;;;;;;;;;;;;;;5020086;28;20271;-80
2023/12/01 15:32:44;;;;;;;;;;;;;;;;;;5030383;28;19916;-79
2023/12/01 15:35:10;;;;;;;;;;;;;;;;;;5019516;28;19921;-80
2023/12/01 15:37:37;;;;;;;;;;;;;;;;;;5036238;28;19923;-80
2023/12/01 15:40:03;;;;;;;;;;;;;;;;;;5014471;28;20749;-80
2023/12/01 15:42:29;;;;;;;;;;;;;;;;;;5031337;28;19917;-80
2023/12/01 15:44:55;;;;;;;;;;;;;;;;;;5015824;28;19924;-81
2023/12/01 15:47:21;;;;;;;;;;;;;;;;;;5023204;28;19921;-79
2023/12/01 15:49:47;;;;;;;;;;;;;;;;;;5021805;28;19995;-79
2023/12/01 15:52:13;;;;;;;;;;;;;;;;;;5033431;28;19943;-79
2023/12/01 15:54:39;;;;;;;;;;;;;;;;;;5016690;28;19924;-79
2023/12/01 15:57:05;;;;;;;;;;;;;;;;;;5015883;28;19956;-79
2023/12/01 15:59:32;;;;;;;;;;;;;;;;;;5029402;28;20455;-80
2023/12/01 16:01:58;;;;;;;;;;;;;;;;;;5031534;28;20721;-80
2023/12/01 16:04:24;;;;;;;;;;;;;;;;;;5016888;28;19982;-79
2023/12/01 16:06:49;;;;;;;;;;;;;;;;;;5012466;28;20692;-79
2023/12/01 16:09:16;;;;;;;;;;;;;;;;;;5014552;28;19909;-80
2023/12/01 16:11:42;;;;;;;;;;;;;;;;;;5032971;28;19928;-80
2023/12/01 16:14:08;;;;;;;;;;;;;;;;;;5012489;28;19917;-80
2023/12/01 16:16:34;;;;;;;;;;;;;;;;;;5030340;28;19936;-80
2023/12/01 16:19:00;;;;;;;;;;;;;;;;;;5016038;28;19920;-80
2023/12/01 16:21:26;;;;;;;;;;;;;;;;;;5032948;28;20103;-79
2023/12/01 16:23:52;;;;;;;;;;;;;;;;;;5034342;28;19928;-80
2023/12/01 16:26:18;;;;;;;;;;;;;;;;;;5032078;28;19924;-81
2023/12/01 16:28:44;;;;;;;;;;;;;;;;;;5031251;28;19917;-80
2023/12/01 16:31:10;;;;;;;;;;;;;;;;;;5042433;28;19924;-81
2023/12/01 16:33:36;;;;;;;;;;;;;;;;;;5034449;28;19924;-79
2023/12/01 16:36:02;;;;;;;;;;;;;;;;;;5044705;28;19920;-79
2023/12/01 16:38:28;;;;;;;;;;;;;;;;;;5035136;28;20043;-82
2023/12/01 16:40:54;;;;;;;;;;;;;;;;;;5025606;28;20033;-79